createdAt,value
2023-07-03T00:02:33.313Z,16.49
2023-07-03T00:05:37.763Z,16.57
2023-07-03T00:08:42.202Z,16.45
2023-07-03T00:11:46.628Z,16.29
2023-07-03T00:14:51.097Z,16.30
2023-07-03T00:17:55.514Z,16.67
2023-07-03T00:20:59.953Z,16.50
2023-07-03T00:24:04.519Z,16.39
2023-07-03T00:27:08.941Z,16.44
2023-07-03T00:30:13.845Z,16.09
2023-07-03T00:33:18.227Z,15.74
2023-07-03T00:36:22.669Z,15.77
2023-07-03T00:39:27.058Z,16.13
2023-07-03T00:45:54.769Z,15.69
2023-07-03T00:48:59.875Z,15.68
2023-07-03T00:52:05.423Z,15.77
2023-07-03T00:55:12.676Z,15.51
2023-07-03T00:58:20.165Z,15.65
2023-07-03T01:01:24.735Z,15.41
2023-07-03T01:04:38.918Z,15.49
2023-07-03T01:07:43.877Z,15.28
2023-07-03T01:10:48.602Z,15.13
2023-07-03T01:13:54.796Z,15.19
2023-07-03T01:16:59.621Z,15.08
2023-07-03T01:20:05.655Z,14.84
2023-07-03T01:23:29.323Z,14.75
2023-07-03T01:26:34.125Z,14.62
2023-07-03T01:29:41.030Z,14.74
2023-07-03T01:32:47.276Z,14.67
2023-07-03T01:35:53.689Z,14.67
2023-07-03T01:38:58.517Z,14.93
2023-07-03T01:42:03.477Z,14.75
2023-07-03T01:45:08.857Z,14.46
2023-07-03T01:48:15.563Z,14.70
2023-07-03T01:51:25.896Z,14.68
2023-07-03T01:54:36.013Z,14.77
2023-07-03T01:57:51.924Z,14.32
2023-07-03T02:01:00.801Z,14.53
2023-07-03T02:04:07.018Z,14.29
2023-07-03T02:07:12.554Z,14.61
2023-07-03T02:10:17.121Z,14.63
2023-07-03T02:13:22.281Z,14.59
2023-07-03T02:16:32.083Z,14.59
2023-07-03T02:19:37.074Z,14.35
2023-07-03T02:22:42.335Z,14.49
2023-07-03T02:25:46.856Z,14.17
2023-07-03T02:28:52.936Z,14.02
2023-07-03T02:31:57.377Z,14.32
2023-07-03T02:35:01.848Z,14.30
2023-07-03T02:38:06.242Z,14.01
2023-07-03T02:41:11.077Z,13.84
2023-07-03T02:44:15.601Z,13.98
2023-07-03T02:47:20.357Z,14.18
2023-07-03T02:50:26.931Z,14.03
2023-07-03T02:53:31.489Z,13.90
2023-07-03T02:56:43.287Z,13.94
2023-07-03T02:59:47.812Z,13.76
2023-07-03T03:02:53.336Z,14.12
2023-07-03T03:05:59.830Z,14.07
2023-07-03T03:09:06.237Z,14.02
2023-07-03T03:12:11.996Z,14.17
2023-07-03T03:15:19.123Z,13.73
2023-07-03T03:18:23.517Z,14.03
2023-07-03T03:21:28.024Z,14.00
2023-07-03T03:24:35.314Z,13.92
2023-07-03T03:27:39.694Z,14.07
2023-07-03T03:30:44.306Z,14.01
2023-07-03T03:33:48.813Z,14.23
2023-07-03T03:36:53.331Z,14.24
2023-07-03T03:39:57.821Z,14.24
2023-07-03T03:43:02.498Z,14.02
2023-07-03T03:46:07.104Z,13.69
2023-07-03T03:49:13.308Z,13.67
2023-07-03T03:52:17.980Z,13.98
2023-07-03T03:55:22.562Z,14.13
2023-07-03T03:58:27.183Z,14.10
2023-07-03T04:01:31.697Z,13.81
2023-07-03T04:04:36.498Z,14.13
2023-07-03T04:07:41.005Z,14.45
2023-07-03T04:10:45.443Z,14.62
2023-07-03T04:13:49.948Z,14.58
2023-07-03T04:16:59.323Z,14.76
2023-07-03T04:20:08.748Z,15.31
2023-07-03T04:23:13.549Z,15.25
2023-07-03T04:26:18.355Z,15.07
2023-07-03T04:29:23.865Z,15.57
2023-07-03T04:32:28.756Z,14.91
2023-07-03T04:35:33.219Z,14.68
2023-07-03T04:38:37.742Z,15.24
2023-07-03T04:41:42.182Z,15.83
2023-07-03T04:44:49.901Z,15.48
2023-07-03T04:47:54.607Z,15.37
2023-07-03T04:50:59.981Z,15.42
2023-07-03T04:54:04.777Z,15.66
2023-07-03T04:57:09.178Z,15.52
2023-07-03T05:00:17.709Z,15.74
2023-07-03T05:03:22.429Z,15.66
2023-07-03T05:06:27.275Z,15.81
2023-07-03T05:09:34.905Z,15.92
2023-07-03T05:12:39.504Z,15.95
2023-07-03T05:15:43.925Z,15.99
2023-07-03T05:18:48.481Z,16.13
2023-07-03T05:21:52.891Z,16.12
2023-07-03T05:24:57.451Z,16.39
2023-07-03T05:28:01.952Z,16.60
2023-07-03T05:31:06.448Z,16.97
2023-07-03T05:34:10.888Z,17.04
2023-07-03T05:37:15.277Z,16.94
2023-07-03T05:40:19.759Z,17.08
2023-07-03T05:43:24.558Z,16.90
2023-07-03T05:46:28.993Z,16.91
2023-07-03T05:49:33.446Z,17.01
2023-07-03T05:52:40.795Z,17.52
2023-07-03T05:55:53.570Z,17.33
2023-07-03T05:58:57.975Z,18.10
2023-07-03T06:02:03.786Z,18.31
2023-07-03T06:05:08.521Z,18.67
2023-07-03T06:08:14.035Z,18.28
2023-07-03T06:11:18.466Z,18.56
2023-07-03T06:14:23.540Z,18.37
2023-07-03T06:17:29.894Z,18.28
2023-07-03T06:20:35.387Z,18.27
2023-07-03T06:23:39.815Z,18.48
2023-07-03T06:26:44.526Z,18.82
2023-07-03T06:29:48.952Z,19.41
2023-07-03T06:32:53.365Z,19.63
2023-07-03T06:36:00.827Z,19.69
2023-07-03T06:39:06.029Z,20.69
2023-07-03T06:42:11.247Z,21.54
2023-07-03T06:45:20.443Z,21.92
2023-07-03T06:48:24.838Z,20.99
2023-07-03T06:51:30.916Z,21.58
2023-07-03T06:54:35.372Z,20.45
2023-07-03T06:57:39.894Z,19.84
2023-07-03T07:00:44.336Z,20.51
2023-07-03T07:03:49.333Z,19.65
2023-07-03T07:06:54.465Z,20.39
2023-07-03T07:09:58.966Z,20.46
2023-07-03T07:13:03.360Z,20.46
2023-07-03T07:16:11.979Z,21.85
2023-07-03T07:19:16.467Z,21.40
2023-07-03T07:22:20.871Z,21.07
2023-07-03T07:25:25.355Z,21.71
2023-07-03T07:28:29.902Z,22.12
2023-07-03T07:31:40.549Z,20.90
2023-07-03T07:34:46.660Z,21.66
2023-07-03T07:37:51.105Z,21.28
2023-07-03T07:41:03.097Z,22.14
2023-07-03T07:44:08.801Z,21.59
2023-07-03T07:47:13.256Z,22.28
2023-07-03T07:50:17.712Z,20.54
2023-07-03T07:53:22.242Z,21.78
2023-07-03T07:56:27.911Z,23.16
2023-07-03T07:59:34.235Z,22.03
2023-07-03T08:02:38.859Z,22.93
2023-07-03T08:05:44.885Z,22.52
2023-07-03T08:08:50.372Z,23.33
2023-07-03T08:11:54.769Z,23.32
2023-07-03T08:14:59.179Z,23.58
2023-07-03T08:18:03.665Z,23.55
2023-07-03T08:21:08.209Z,23.42
2023-07-03T08:24:12.752Z,23.06
2023-07-03T08:27:17.127Z,24.00
2023-07-03T08:30:23.218Z,23.49
2023-07-03T08:33:27.794Z,23.54
2023-07-03T08:39:40.185Z,23.29
2023-07-03T08:42:54.382Z,24.87
2023-07-03T08:45:58.910Z,25.20
2023-07-03T08:49:07.029Z,24.49
2023-07-03T08:52:13.107Z,23.98
2023-07-03T08:55:21.537Z,23.68
2023-07-03T08:58:26.149Z,23.22
2023-07-03T09:01:34.383Z,24.34
2023-07-03T09:04:39.872Z,24.98
2023-07-03T09:07:49.831Z,24.57
2023-07-03T09:10:54.718Z,24.40
2023-07-03T09:14:01.732Z,24.25
2023-07-03T09:17:10.625Z,23.75
2023-07-03T09:20:15.910Z,24.41
2023-07-03T09:23:22.515Z,24.36
2023-07-03T09:26:31.721Z,24.48
2023-07-03T09:29:37.674Z,25.54
2023-07-03T09:32:42.171Z,25.58
2023-07-03T09:35:48.921Z,24.42
2023-07-03T09:38:53.577Z,24.18
2023-07-03T09:42:06.177Z,23.87
2023-07-03T09:45:13.377Z,24.56
2023-07-03T09:48:23.273Z,24.13
2023-07-03T09:51:31.475Z,25.32
2023-07-03T09:54:41.966Z,25.79
2023-07-03T09:57:48.147Z,26.45
2023-07-03T10:00:55.432Z,26.16
2023-07-03T10:04:03.001Z,26.34
2023-07-03T10:07:08.451Z,26.07
2023-07-03T10:13:38.556Z,25.62
2023-07-03T10:16:44.862Z,25.91
2023-07-03T10:19:54.538Z,25.95
2023-07-03T10:23:00.774Z,27.47
2023-07-03T10:26:05.934Z,26.99
2023-07-03T10:29:18.909Z,26.17
2023-07-03T10:32:25.359Z,25.27
2023-07-03T10:35:31.696Z,26.47
2023-07-03T10:38:55.499Z,26.32
2023-07-03T10:42:04.269Z,25.14
2023-07-03T10:45:11.687Z,25.41
2023-07-03T10:48:18.260Z,26.20
2023-07-03T10:51:26.609Z,25.75
2023-07-03T10:54:34.521Z,25.82
2023-07-03T10:57:43.284Z,24.25
2023-07-03T11:01:06.318Z,24.55
2023-07-03T11:04:23.942Z,24.54
2023-07-03T11:07:37.176Z,25.16
2023-07-03T11:10:57.397Z,24.67
2023-07-03T11:14:02.248Z,25.76
2023-07-03T11:17:12.184Z,25.95
2023-07-03T11:20:24.767Z,26.23
2023-07-03T11:23:33.375Z,25.34
2023-07-03T11:29:49.401Z,24.72
2023-07-03T11:32:55.342Z,25.70
2023-07-03T11:36:00.908Z,26.98
2023-07-03T11:45:28.184Z,26.13
2023-07-03T11:48:35.005Z,27.00
2023-07-03T11:51:39.988Z,27.34
2023-07-03T11:54:44.587Z,26.25
2023-07-03T11:58:09.005Z,26.08
2023-07-03T12:01:22.705Z,26.15
2023-07-03T12:04:51.615Z,26.03
2023-07-03T12:07:56.167Z,28.46
2023-07-03T12:11:01.240Z,29.19
2023-07-03T12:14:06.040Z,25.85
2023-07-03T12:17:17.416Z,28.83
2023-07-03T12:20:22.924Z,27.67
2023-07-03T12:23:35.964Z,30.14
2023-07-03T12:26:41.806Z,28.09
2023-07-03T12:29:47.047Z,28.36
2023-07-03T12:32:52.508Z,28.51
2023-07-03T12:35:56.970Z,28.62
2023-07-03T12:39:10.198Z,29.06
2023-07-03T12:42:23.440Z,29.67
2023-07-03T12:45:30.964Z,29.52
2023-07-03T12:48:35.385Z,30.87
2023-07-03T12:51:39.733Z,30.88
2023-07-03T12:54:44.190Z,31.08
2023-07-03T12:57:49.945Z,30.53
2023-07-03T13:01:08.348Z,31.28
2023-07-03T13:04:12.981Z,30.30
2023-07-03T13:07:19.368Z,28.95
2023-07-03T13:10:24.209Z,29.15
2023-07-03T13:13:29.110Z,30.68
2023-07-03T13:16:35.476Z,30.79
2023-07-03T13:19:40.039Z,28.96
2023-07-03T13:22:52.528Z,27.61
2023-07-03T13:25:57.283Z,26.79
2023-07-03T13:29:02.779Z,27.65
2023-07-03T13:32:14.344Z,27.72
2023-07-03T13:35:26.101Z,27.51
2023-07-03T13:38:32.028Z,29.00
2023-07-03T13:41:37.359Z,28.38
2023-07-03T13:44:42.883Z,27.02
2023-07-03T13:47:47.438Z,28.22
2023-07-03T13:50:53.612Z,28.28
2023-07-03T13:54:10.606Z,27.42
2023-07-03T13:57:16.748Z,27.07
2023-07-03T14:00:21.916Z,25.45
2023-07-03T14:03:26.476Z,25.94
2023-07-03T14:06:31.307Z,27.55
2023-07-03T14:09:35.744Z,27.98
2023-07-03T14:12:40.170Z,28.10
2023-07-03T14:15:44.721Z,26.68
2023-07-03T14:18:50.178Z,27.15
2023-07-03T14:21:54.626Z,26.72
2023-07-03T14:25:00.857Z,28.79
2023-07-03T14:28:05.703Z,28.15
2023-07-03T14:31:11.922Z,27.28
2023-07-03T14:34:16.426Z,27.98
2023-07-03T14:37:23.835Z,27.55
2023-07-03T14:40:28.253Z,28.25
2023-07-03T14:43:33.027Z,29.92
2023-07-03T14:46:37.526Z,29.55
2023-07-03T14:49:43.811Z,27.92
2023-07-03T14:52:48.682Z,27.66
2023-07-03T14:55:57.146Z,27.40
2023-07-03T14:59:01.538Z,26.75
2023-07-03T15:02:06.478Z,25.69
2023-07-03T15:05:12.219Z,26.68
2023-07-03T15:08:16.647Z,28.10
2023-07-03T15:11:21.129Z,27.68
2023-07-03T15:14:25.550Z,26.37
2023-07-03T15:17:29.982Z,27.04
2023-07-03T15:20:39.360Z,27.03
2023-07-03T15:23:44.095Z,27.65
2023-07-03T15:26:48.697Z,28.10
2023-07-03T15:29:53.161Z,26.54
2023-07-03T15:32:57.771Z,28.34
2023-07-03T15:36:03.583Z,28.30
2023-07-03T15:39:08.035Z,28.81
2023-07-03T15:42:12.590Z,26.90
2023-07-03T15:45:17.036Z,27.44
2023-07-03T15:48:21.481Z,25.92
2023-07-03T15:51:25.918Z,26.73
2023-07-03T15:54:30.398Z,26.52
2023-07-03T15:57:34.825Z,26.76
2023-07-03T16:00:39.310Z,27.47
2023-07-03T16:03:44.334Z,27.54
2023-07-03T16:06:51.881Z,27.13
2023-07-03T16:09:56.377Z,27.19
2023-07-03T16:13:00.759Z,26.07
2023-07-03T16:16:11.289Z,25.80
2023-07-03T16:19:15.800Z,25.65
2023-07-03T16:22:22.380Z,26.03
2023-07-03T16:25:26.760Z,25.64
2023-07-03T16:28:32.839Z,24.84
2023-07-03T16:31:39.031Z,25.21
2023-07-03T16:34:43.616Z,25.12
2023-07-03T16:37:48.964Z,25.01
2023-07-03T16:40:57.200Z,24.88
2023-07-03T16:44:01.690Z,24.41
2023-07-03T16:47:06.766Z,23.92
2023-07-03T16:50:12.053Z,24.23
2023-07-03T16:53:19.166Z,24.24
2023-07-03T16:56:25.409Z,24.15
2023-07-03T16:59:30.051Z,24.65
2023-07-03T17:02:34.430Z,24.23
2023-07-03T17:05:40.862Z,24.60
2023-07-03T17:08:46.950Z,24.42
2023-07-03T17:11:51.387Z,24.89
2023-07-03T17:14:56.102Z,24.69
2023-07-03T17:18:01.602Z,24.35
2023-07-03T17:21:06.098Z,24.41
2023-07-03T17:24:10.469Z,24.47
2023-07-03T17:27:15.463Z,24.29
2023-07-03T17:30:19.923Z,24.56
2023-07-03T17:33:24.424Z,24.63
2023-07-03T17:36:28.838Z,24.13
2023-07-03T17:39:33.287Z,24.41
2023-07-03T17:42:38.965Z,24.38
2023-07-03T17:45:45.593Z,24.44
2023-07-03T17:48:50.160Z,24.08
2023-07-03T17:51:54.637Z,24.52
2023-07-03T17:54:59.098Z,23.76
2023-07-03T17:58:04.054Z,23.71
2023-07-03T18:01:08.579Z,23.99
2023-07-03T18:04:13.027Z,24.23
2023-07-03T18:07:17.447Z,23.54
2023-07-03T18:10:21.863Z,23.96
2023-07-03T18:13:28.256Z,23.77
2023-07-03T18:16:32.962Z,23.56
2023-07-03T18:19:37.636Z,23.03
2023-07-03T18:22:42.081Z,23.57
2023-07-03T18:25:47.688Z,23.39
2023-07-03T18:28:52.050Z,23.15
2023-07-03T18:31:56.563Z,23.03
2023-07-03T18:35:01.155Z,23.40
2023-07-03T18:38:05.700Z,23.14
2023-07-03T18:41:10.214Z,23.26
2023-07-03T18:44:14.595Z,23.16
2023-07-03T18:47:20.034Z,23.19
2023-07-03T18:50:24.416Z,23.32
2023-07-03T18:53:29.311Z,23.39
2023-07-03T18:56:33.719Z,23.55
2023-07-03T18:59:38.306Z,23.14
2023-07-03T19:02:42.898Z,23.03
2023-07-03T19:09:21.323Z,23.04
2023-07-03T19:12:26.141Z,22.66
2023-07-03T19:15:30.611Z,22.68
2023-07-03T19:18:36.789Z,22.62
2023-07-03T19:21:41.499Z,22.72
2023-07-03T19:24:46.094Z,22.75
2023-07-03T19:27:50.707Z,22.50
2023-07-03T19:30:56.291Z,22.44
2023-07-03T19:34:03.184Z,22.63
2023-07-03T19:37:08.161Z,22.20
2023-07-03T19:40:12.611Z,22.12
2023-07-03T19:43:17.317Z,21.80
2023-07-03T19:46:21.764Z,21.78
2023-07-03T19:49:26.719Z,22.10
2023-07-03T19:52:31.363Z,22.11
2023-07-03T19:55:36.787Z,21.99
2023-07-03T19:58:41.375Z,22.02
2023-07-03T20:01:45.879Z,21.64
2023-07-03T20:04:50.447Z,21.89
2023-07-03T20:07:54.923Z,21.75
2023-07-03T20:10:59.913Z,21.46
2023-07-03T20:14:04.872Z,21.19
2023-07-03T20:17:09.616Z,21.14
2023-07-03T20:20:15.227Z,21.07
2023-07-03T20:23:19.704Z,21.15
2023-07-03T20:26:25.482Z,21.27
2023-07-03T20:29:30.141Z,21.08
2023-07-03T20:32:35.441Z,21.06
2023-07-03T20:35:40.080Z,20.45
2023-07-03T20:38:44.616Z,20.78
2023-07-03T20:41:49.613Z,21.02
2023-07-03T20:44:56.528Z,20.92
2023-07-03T20:48:00.982Z,21.13
2023-07-03T20:51:13.246Z,20.96
2023-07-03T20:54:34.614Z,20.90
2023-07-03T20:57:39.297Z,20.87
2023-07-03T21:00:43.844Z,20.51
2023-07-03T21:03:49.726Z,20.63
2023-07-03T21:06:58.099Z,20.44
2023-07-03T21:10:03.946Z,20.67
2023-07-03T21:13:08.488Z,20.71
2023-07-03T21:16:14.165Z,20.13
2023-07-03T21:19:18.652Z,20.38
2023-07-03T21:22:23.286Z,20.28
2023-07-03T21:25:30.495Z,20.09
2023-07-03T21:28:34.915Z,19.95
2023-07-03T21:31:39.793Z,20.07
2023-07-03T21:34:44.580Z,20.01
2023-07-03T21:37:49.016Z,19.84
2023-07-03T21:40:54.326Z,19.80
2023-07-03T21:44:00.210Z,19.91
2023-07-03T21:47:04.863Z,19.84
2023-07-03T21:50:10.250Z,19.74
2023-07-03T21:53:14.613Z,19.38
2023-07-03T21:56:20.190Z,19.49
2023-07-03T21:59:24.685Z,19.49
2023-07-03T22:02:29.397Z,19.60
2023-07-03T22:05:34.408Z,19.65
2023-07-03T22:08:38.871Z,19.44
2023-07-03T22:11:43.469Z,19.39
2023-07-03T22:14:47.921Z,19.42
2023-07-03T22:17:52.643Z,19.39
2023-07-03T22:20:57.257Z,19.22
2023-07-03T22:24:03.328Z,19.17
2023-07-03T22:27:07.707Z,19.03
2023-07-03T22:30:13.357Z,19.01
2023-07-03T22:33:17.962Z,19.05
2023-07-03T22:36:22.583Z,19.03
2023-07-03T22:39:27.017Z,18.81
2023-07-03T22:42:31.427Z,18.29
2023-07-03T22:45:35.937Z,18.59
2023-07-03T22:48:43.895Z,18.67
2023-07-03T22:51:48.523Z,18.59
2023-07-03T22:54:53.163Z,18.55
2023-07-03T22:57:57.565Z,18.01
2023-07-03T23:01:11.994Z,18.06
2023-07-03T23:04:16.493Z,18.11
2023-07-03T23:07:22.481Z,18.07
2023-07-03T23:10:26.997Z,18.13
2023-07-03T23:13:32.715Z,17.86
2023-07-03T23:16:37.399Z,17.80
2023-07-03T23:19:41.875Z,17.79
2023-07-03T23:22:47.147Z,17.89
2023-07-03T23:25:55.989Z,17.85
2023-07-03T23:29:02.250Z,17.51
2023-07-03T23:32:07.071Z,17.69
2023-07-03T23:35:11.922Z,17.63
2023-07-03T23:38:16.463Z,17.57
2023-07-03T23:41:21.636Z,17.71
2023-07-03T23:44:26.119Z,17.50
2023-07-03T23:47:30.735Z,17.37
2023-07-03T23:50:35.211Z,17.31
2023-07-03T23:53:41.160Z,16.88
2023-07-03T23:56:49.647Z,16.88
2023-07-03T23:59:54.354Z,16.90
